createdAt,value
2024-03-06T00:01:07.678Z,31.70
2024-03-06T00:05:25.958Z,32.40
2024-03-06T00:09:28.423Z,31.70
2024-03-06T00:13:30.325Z,32.90
2024-03-06T00:17:32.278Z,34.20
2024-03-06T00:21:34.336Z,34.80
2024-03-06T00:25:36.910Z,32.50
2024-03-06T00:29:39.048Z,35.70
2024-03-06T00:33:41.124Z,31.80
2024-03-06T00:37:43.044Z,32.40
2024-03-06T00:41:45.193Z,32.80
2024-03-06T00:45:47.084Z,35.70
2024-03-06T00:49:49.106Z,33.40
2024-03-06T00:53:50.987Z,33.80
2024-03-06T00:57:52.853Z,33.90
2024-03-06T01:01:58.056Z,33.20
2024-03-06T01:06:00.220Z,31.10
2024-03-06T01:10:02.855Z,34.50
2024-03-06T01:14:05.393Z,30.70
2024-03-06T01:18:07.430Z,43.20
2024-03-06T01:22:09.711Z,38.90
2024-03-06T01:26:12.298Z,40.20
2024-03-06T01:30:14.429Z,39.00
2024-03-06T01:34:16.384Z,32.40
2024-03-06T01:38:18.410Z,31.20
2024-03-06T01:42:20.305Z,33.60
2024-03-06T01:46:22.232Z,35.40
2024-03-06T01:50:24.457Z,37.80
2024-03-06T01:54:27.356Z,35.40
2024-03-06T01:58:29.423Z,37.90
2024-03-06T02:02:31.604Z,39.30
2024-03-06T02:06:34.346Z,39.10
2024-03-06T02:10:36.666Z,35.00
2024-03-06T02:14:38.813Z,38.20
2024-03-06T02:18:55.379Z,37.10
2024-03-06T02:22:57.341Z,40.00
2024-03-06T02:26:59.385Z,37.40
2024-03-06T02:31:02.563Z,36.70
2024-03-06T02:35:09.006Z,38.20
2024-03-06T02:43:12.761Z,39.40
2024-03-06T02:47:14.728Z,34.60
2024-03-06T02:51:20.609Z,39.10
2024-03-06T02:55:24.329Z,39.60
2024-03-06T02:59:27.150Z,37.00
2024-03-06T03:03:30.312Z,32.80
2024-03-06T03:07:32.668Z,31.10
2024-03-06T03:11:36.675Z,32.50
2024-03-06T03:15:38.755Z,31.40
2024-03-06T03:19:40.878Z,36.60
2024-03-06T03:23:43.093Z,34.30
2024-03-06T03:27:45.057Z,32.80
2024-03-06T03:31:47.377Z,33.30
2024-03-06T03:35:49.417Z,34.30
2024-03-06T03:39:51.233Z,35.10
2024-03-06T03:43:53.602Z,34.30
2024-03-06T03:47:55.586Z,30.30
2024-03-06T03:51:57.544Z,34.40
2024-03-06T03:56:00.082Z,29.00
2024-03-06T04:00:02.250Z,29.10
2024-03-06T04:04:05.066Z,34.60
2024-03-06T04:08:07.264Z,32.20
2024-03-06T04:12:09.479Z,34.60
2024-03-06T04:16:17.165Z,29.40
2024-03-06T04:20:19.419Z,28.30
2024-03-06T04:24:21.480Z,30.80
2024-03-06T04:28:23.474Z,31.20
2024-03-06T04:32:25.512Z,37.50
2024-03-06T04:36:27.612Z,34.10
2024-03-06T04:40:29.775Z,34.90
2024-03-06T04:44:35.379Z,33.50
2024-03-06T04:48:37.429Z,31.10
2024-03-06T04:52:39.775Z,28.90
2024-03-06T04:56:41.908Z,35.50
2024-03-06T05:00:44.115Z,28.90
2024-03-06T06:01:14.307Z,32.10
2024-03-06T06:05:23.163Z,35.00
2024-03-06T06:09:26.122Z,29.60
2024-03-06T06:13:28.036Z,34.20
2024-03-06T06:17:30.058Z,30.50
2024-03-06T06:21:31.933Z,31.60
2024-03-06T06:25:34.065Z,33.10
2024-03-06T06:29:36.127Z,31.70
2024-03-06T06:33:38.176Z,33.80
2024-03-06T06:37:40.492Z,36.70
2024-03-06T06:41:43.293Z,32.70
2024-03-06T06:45:45.327Z,33.80
2024-03-06T06:49:47.144Z,30.20
2024-03-06T06:53:49.014Z,28.60
2024-03-06T06:57:51.694Z,31.70
2024-03-06T07:01:54.706Z,34.40
2024-03-06T07:05:57.837Z,28.70
2024-03-06T07:09:59.680Z,30.40
2024-03-06T07:14:01.687Z,31.20
2024-03-06T07:18:03.994Z,28.90
2024-03-06T07:22:06.447Z,31.40
2024-03-06T07:26:08.362Z,32.70
2024-03-06T07:30:13.786Z,30.40
2024-03-06T07:38:18.807Z,26.30
2024-03-06T07:42:21.708Z,29.70
2024-03-06T07:46:23.574Z,30.70
2024-03-06T07:50:27.396Z,30.30
2024-03-06T07:54:29.759Z,33.20
2024-03-06T07:58:31.827Z,32.70
2024-03-06T08:02:33.801Z,32.00
2024-03-06T08:06:38.062Z,33.10
2024-03-06T08:10:39.939Z,35.30
2024-03-06T08:14:41.920Z,42.20
2024-03-06T08:18:43.846Z,41.00
2024-03-06T08:22:45.786Z,37.70
2024-03-06T08:26:48.990Z,42.30
2024-03-06T08:30:52.317Z,43.20
2024-03-06T08:34:54.104Z,45.50
2024-03-06T08:38:55.982Z,46.90
2024-03-06T08:42:57.851Z,54.40
2024-03-06T08:46:59.775Z,51.90
2024-03-06T08:51:01.682Z,54.20
2024-03-06T08:55:07.320Z,54.80
2024-03-06T08:59:09.262Z,54.70
2024-03-06T09:03:11.104Z,49.90
2024-03-06T09:07:13.865Z,55.40
2024-03-06T09:11:16.106Z,52.80
2024-03-06T09:15:18.561Z,53.70
2024-03-06T09:19:20.381Z,56.20
2024-03-06T09:23:22.259Z,51.70
2024-03-06T09:27:24.186Z,48.50
2024-03-06T09:31:26.006Z,57.60
2024-03-06T09:35:27.993Z,48.90
2024-03-06T09:39:29.853Z,54.30
2024-03-06T09:43:32.440Z,57.30
2024-03-06T09:47:37.729Z,54.20
2024-03-06T09:51:42.154Z,59.50
2024-03-06T09:55:46.753Z,58.00
2024-03-06T09:59:48.585Z,58.00
2024-03-06T10:03:51.188Z,60.30
2024-03-06T10:07:53.537Z,56.60
2024-03-06T10:11:57.588Z,60.20
2024-03-06T10:16:05.155Z,67.40
2024-03-06T10:20:21.635Z,63.20
2024-03-06T10:24:29.015Z,62.90
2024-03-06T10:28:32.790Z,60.70
2024-03-06T10:32:34.865Z,58.80
2024-03-06T10:36:37.883Z,51.40
2024-03-06T10:40:42.924Z,58.10
2024-03-06T10:44:53.627Z,56.40
2024-03-06T10:48:59.185Z,57.70
2024-03-06T10:53:02.108Z,57.80
2024-03-06T10:57:04.629Z,56.10
2024-03-06T11:01:09.354Z,60.60
2024-03-06T11:05:11.486Z,56.10
2024-03-06T11:09:15.698Z,55.60
2024-03-06T11:13:20.417Z,49.40
2024-03-06T11:17:26.836Z,51.80
2024-03-06T11:21:29.046Z,43.30
2024-03-06T11:25:55.604Z,42.70
2024-03-06T11:30:11.657Z,48.00
2024-03-06T11:34:16.855Z,40.00
2024-03-06T11:38:22.046Z,40.00
2024-03-06T11:42:39.781Z,39.30
2024-03-06T11:46:43.417Z,37.70
2024-03-06T11:50:45.800Z,36.90
2024-03-06T11:54:47.666Z,31.70
2024-03-06T11:58:50.391Z,29.90
2024-03-06T12:02:52.588Z,24.10
2024-03-06T12:07:05.528Z,26.00
2024-03-06T12:11:08.488Z,27.50
2024-03-06T12:15:12.281Z,20.60
2024-03-06T12:19:14.143Z,21.60
2024-03-06T12:23:23.900Z,22.60
2024-03-06T12:27:25.671Z,19.00
2024-03-06T12:31:27.460Z,18.80
2024-03-06T12:35:29.393Z,23.00
2024-03-06T12:39:33.481Z,20.00
2024-03-06T12:43:35.398Z,16.40
2024-03-06T12:47:38.183Z,19.60
2024-03-06T12:51:41.033Z,19.80
2024-03-06T12:55:46.297Z,20.50
2024-03-06T12:59:48.163Z,23.60
2024-03-06T13:03:50.051Z,18.50
2024-03-06T13:07:51.907Z,21.40
2024-03-06T13:11:55.119Z,22.10
2024-03-06T13:15:57.156Z,23.60
2024-03-06T13:19:59.119Z,22.40
2024-03-06T13:24:00.975Z,25.70
2024-03-06T13:28:03.840Z,23.90
2024-03-06T13:32:06.901Z,24.00
2024-03-06T13:36:08.798Z,22.80
2024-03-06T13:40:13.698Z,24.30
2024-03-06T13:44:15.592Z,20.90
2024-03-06T13:48:17.944Z,23.70
2024-03-06T13:52:23.985Z,26.50
2024-03-06T13:56:26.224Z,29.50
2024-03-06T14:00:28.019Z,30.70
2024-03-06T14:04:31.054Z,27.70
2024-03-06T14:08:32.899Z,28.10
2024-03-06T14:12:36.116Z,26.30
2024-03-06T14:16:40.832Z,30.50
2024-03-06T14:20:42.613Z,29.20
2024-03-06T14:24:44.450Z,31.10
2024-03-06T14:28:46.373Z,28.00
2024-03-06T14:32:48.174Z,28.40
2024-03-06T14:36:53.304Z,26.50
2024-03-06T14:40:55.004Z,28.20
2024-03-06T14:44:56.829Z,25.80
2024-03-06T14:48:58.659Z,29.20
2024-03-06T14:53:00.419Z,26.00
2024-03-06T14:57:02.196Z,29.20
2024-03-06T15:01:04.491Z,30.80
2024-03-06T15:05:06.440Z,29.20
2024-03-06T15:09:12.377Z,28.40
2024-03-06T15:13:16.634Z,24.50
2024-03-06T15:17:18.548Z,23.20
2024-03-06T15:21:20.957Z,28.60
2024-03-06T15:25:22.734Z,24.60
2024-03-06T15:29:24.509Z,28.40
2024-03-06T15:33:26.810Z,26.40
2024-03-06T15:37:28.617Z,28.00
2024-03-06T15:41:30.521Z,28.40
2024-03-06T15:45:32.312Z,28.40
2024-03-06T15:49:34.230Z,32.30
2024-03-06T15:53:36.318Z,35.20
2024-03-06T15:57:38.867Z,35.90
2024-03-06T16:01:40.744Z,36.10
2024-03-06T16:05:42.677Z,32.50
2024-03-06T16:09:45.009Z,36.20
2024-03-06T16:13:46.901Z,33.60
2024-03-06T16:17:48.950Z,34.40
2024-03-06T16:21:52.283Z,35.30
2024-03-06T16:25:54.314Z,32.10
2024-03-06T16:29:56.449Z,31.80
2024-03-06T16:33:58.477Z,31.30
2024-03-06T16:38:00.633Z,25.10
2024-03-06T16:42:03.582Z,25.50
2024-03-06T16:46:07.167Z,28.00
2024-03-06T16:50:09.812Z,27.60
2024-03-06T16:54:14.197Z,27.00
2024-03-06T16:58:16.398Z,31.30
2024-03-06T17:02:18.793Z,29.70
2024-03-06T17:06:20.968Z,26.10
2024-03-06T17:10:24.254Z,28.40
2024-03-06T17:14:27.110Z,31.00
2024-03-06T17:18:29.608Z,33.30
2024-03-06T17:22:32.288Z,32.60
2024-03-06T17:26:38.231Z,32.30
2024-03-06T17:30:42.156Z,30.60
2024-03-06T17:34:44.534Z,32.10
2024-03-06T17:38:47.372Z,34.50
2024-03-06T17:42:49.643Z,31.20
2024-03-06T17:46:51.834Z,34.20
2024-03-06T17:50:54.123Z,34.00
2024-03-06T17:54:56.439Z,30.90
2024-03-06T17:58:58.663Z,32.20
2024-03-06T18:03:00.885Z,32.80
2024-03-06T18:07:03.312Z,30.00
2024-03-06T18:11:05.772Z,29.10
2024-03-06T18:15:08.782Z,32.40
2024-03-06T18:19:11.396Z,29.20
2024-03-06T18:23:13.630Z,32.60
2024-03-06T18:27:15.873Z,32.40
2024-03-06T18:31:18.044Z,33.30
2024-03-06T18:35:20.173Z,34.40
2024-03-06T18:39:22.169Z,30.70
2024-03-06T18:43:24.267Z,31.10
2024-03-06T18:47:26.378Z,31.20
2024-03-06T18:51:28.295Z,32.50
2024-03-06T18:55:30.703Z,31.50
2024-03-06T18:59:32.984Z,30.30
2024-03-06T19:03:36.856Z,30.80
2024-03-06T19:07:39.142Z,31.00
2024-03-06T19:11:41.674Z,33.50
2024-03-06T19:15:43.969Z,32.30
2024-03-06T19:19:46.170Z,30.90
2024-03-06T19:23:48.426Z,30.10
2024-03-06T19:27:52.275Z,30.60
2024-03-06T19:31:57.963Z,30.40
2024-03-06T19:36:00.349Z,31.10
2024-03-06T19:40:07.460Z,34.60
2024-03-06T19:44:09.719Z,32.20
2024-03-06T19:48:12.387Z,32.40
2024-03-06T19:52:14.606Z,30.90
2024-03-06T19:56:17.072Z,37.60
2024-03-06T20:00:20.906Z,36.70
2024-03-06T20:04:24.756Z,35.70
2024-03-06T20:08:27.083Z,39.40
2024-03-06T20:12:30.273Z,39.60
2024-03-06T20:16:32.902Z,45.00
2024-03-06T20:20:35.105Z,47.90
2024-03-06T20:24:37.525Z,51.30
2024-03-06T20:28:41.443Z,37.80
2024-03-06T20:32:44.073Z,42.60
2024-03-06T20:36:46.850Z,42.80
2024-03-06T20:40:50.551Z,42.30
2024-03-06T20:44:52.922Z,43.50
2024-03-06T20:48:55.128Z,37.40
2024-03-06T20:52:57.248Z,35.60
2024-03-06T20:56:59.805Z,35.00
2024-03-06T21:01:05.019Z,35.90
2024-03-06T21:05:08.237Z,36.90
2024-03-06T21:09:12.034Z,35.30
2024-03-06T21:13:14.106Z,38.40
2024-03-06T21:17:18.521Z,36.20
2024-03-06T21:21:20.779Z,38.60
2024-03-06T21:25:24.300Z,35.30
2024-03-06T21:29:27.628Z,35.70
2024-03-06T21:33:29.962Z,31.40
2024-03-06T21:37:33.191Z,32.60
2024-03-06T21:41:38.223Z,35.60
2024-03-06T21:45:40.391Z,35.40
2024-03-06T21:49:42.810Z,38.80
2024-03-06T21:53:44.995Z,36.40
2024-03-06T21:57:47.223Z,26.50
2024-03-06T22:01:49.939Z,29.30
2024-03-06T22:05:52.039Z,28.80
2024-03-06T22:09:54.247Z,28.80
2024-03-06T22:13:56.483Z,27.80
2024-03-06T22:17:58.659Z,29.80
2024-03-06T22:22:00.997Z,30.60
2024-03-06T22:26:03.264Z,29.50
2024-03-06T22:30:07.152Z,28.70
2024-03-06T22:34:09.262Z,27.20
2024-03-06T22:38:11.446Z,30.20
2024-03-06T22:42:13.606Z,31.40
2024-03-06T22:46:16.401Z,29.30
2024-03-06T22:50:18.653Z,30.40
2024-03-06T22:54:20.967Z,31.50
2024-03-06T22:58:23.291Z,29.40
2024-03-06T23:02:25.336Z,30.20
2024-03-06T23:06:27.545Z,29.70
2024-03-06T23:10:29.588Z,29.80
2024-03-06T23:14:31.710Z,30.40
2024-03-06T23:18:33.933Z,29.40
2024-03-06T23:22:36.028Z,28.90
2024-03-06T23:26:38.362Z,30.30
2024-03-06T23:30:41.471Z,30.70
2024-03-06T23:34:43.610Z,31.00
2024-03-06T23:38:45.875Z,29.10
2024-03-06T23:42:48.223Z,28.60
2024-03-06T23:46:50.333Z,29.40
2024-03-06T23:50:52.630Z,25.60
2024-03-06T23:54:55.097Z,24.60
2024-03-06T23:58:57.562Z,30.10
